Home   Weather   Moldova   Tiraspol   Past weeks
Flag for Moldova

Past Weather in Tiraspol, Moldova — Yesterday and Last 2 Weeks

Currently: 48 °F. Passing clouds. (Weather station: Chisinau International Airport, Moldova). See more current weather

Past Weather in Tiraspol — Graph

°F

Tiraspol Temperature Yesterday

Maximum temperature yesterday: 63 °F (at 4:00 pm)
Minimum temperature yesterday: 37 °F (at 5:00 am)
Average temperature yesterday: 51 °F

High & Low Weather Summary for the Past Weeks

 TemperatureHumidityPressure
High68 °F (Apr 12, 3:30 pm)100% (Apr 14, 5:30 am)30.36 "Hg (Apr 14, 5:30 am)
Low25 °F (Apr 10, 6:00 am)20% (Apr 12, 3:30 pm)29.50 "Hg (Apr 7, 5:00 am)
Average47 °F67%30.02 "Hg
* Reported Apr 6 11:00 pm — Apr 21 11:30 pm, Tiraspol. Weather by CustomWeather, © 2021

Note: Actual official high and low records may vary slightly from our data, if they occured in-between our weather recording intervals... More about our weather records

Tiraspol Weather History for the Previous 24 Hours

Scroll right to see more
 ConditionsComfort  
Time TempWeatherWind HumidityBarometerVisibility
11:30 pm
Wed, Apr 21
50 °FClear.12 mph76%30.04 "Hg10 mi
11:00 pm50 °FClear.12 mph82%30.01 "Hg10 mi
10:30 pm52 °FClear.12 mph77%30.01 "Hg10 mi
10:00 pm48 °FClear.7 mph82%30.01 "Hg10 mi
9:30 pm52 °FClear.8 mph72%30.01 "Hg10 mi
9:00 pm52 °FClear.7 mph67%30.01 "Hg10 mi
8:30 pm52 °FPassing clouds.7 mph67%29.98 "HgN/A
8:00 pm55 °FClear.5 mph51%29.98 "Hg10 mi
7:30 pm57 °FSunny.3 mph51%29.98 "Hg10 mi
7:00 pm57 °FScattered clouds.9 mph51%29.95 "HgN/A
6:30 pm59 °FScattered clouds.9 mph45%29.95 "HgN/A
6:00 pm59 °FSprinkles. Scattered clouds.14 mph48%29.95 "HgN/A
5:30 pm61 °FPassing clouds.5 mph45%29.95 "HgN/A
5:00 pm63 °FSunny.6 mph42%29.95 "Hg10 mi
4:30 pm61 °FPassing clouds.6 mph45%29.95 "HgN/A
4:00 pm63 °FSunny.5 mph42%29.95 "Hg10 mi
3:30 pm61 °FSunny.5 mph45%29.95 "Hg10 mi
3:00 pm59 °FPassing clouds.8 mph48%29.95 "HgN/A
2:30 pm59 °FSunny.13 mph51%29.95 "Hg10 mi
2:00 pm59 °FSunny.12 mph51%29.95 "Hg10 mi
1:30 pm59 °FPassing clouds.7 mph51%29.95 "HgN/A
1:00 pm61 °FScattered clouds.5 mph45%29.95 "HgN/A
12:30 pm61 °FScattered clouds.7 mph52%29.95 "HgN/A
12:00 pm57 °FPassing clouds.7 mph51%29.95 "HgN/A
11:30 am59 °FPartly sunny.8 mph51%29.95 "HgN/A
11:00 am57 °FScattered clouds.8 mph55%29.95 "HgN/A
10:30 am57 °FPassing clouds.7 mph51%29.95 "HgN/A
10:00 am57 °FSunny.3 mph59%29.95 "Hg10 mi
9:30 am54 °FPassing clouds.3 mph67%29.95 "HgN/A
9:00 am52 °FSunny.7 mph72%29.95 "Hg10 mi
8:30 am48 °FSunny.2 mph82%29.95 "Hg10 mi
8:00 am45 °FSunny.2 mph87%29.92 "Hg10 mi
7:30 am43 °FSunny.2 mph87%29.92 "Hg10 mi
7:00 am39 °FSunny.No wind87%29.92 "Hg10 mi
6:30 am39 °FSunny.5 mph87%29.92 "Hg10 mi
6:00 am37 °FClear.No wind87%29.89 "Hg10 mi
5:30 am43 °FPassing clouds.3 mph81%29.89 "HgN/A
5:00 am37 °FClear.5 mph87%29.89 "Hg10 mi
4:30 am41 °FPassing clouds.3 mph93%29.89 "HgN/A
4:00 am45 °FClear.6 mph81%29.89 "Hg10 mi
3:30 am43 °FPassing clouds.3 mph87%29.89 "HgN/A
3:00 am43 °FPassing clouds.3 mph81%29.89 "HgN/A
2:30 am43 °FPassing clouds.5 mph81%29.86 "HgN/A
2:00 am43 °FClear.6 mph81%29.86 "Hg10 mi
1:30 am41 °FClear.7 mph87%29.86 "Hg10 mi
1:00 am41 °FClear.6 mph87%29.86 "Hg10 mi
12:30 am45 °FClear.7 mph76%29.86 "Hg10 mi
12:00 am43 °FClear.6 mph87%29.86 "Hg10 mi
Weather by CustomWeather, © 2021

See weather overview